createdAt,value
2022-10-26T00:00:45.153Z,9.04
2022-10-26T00:01:45.278Z,9.02
2022-10-26T00:02:45.206Z,9.13
2022-10-26T00:03:45.098Z,9.14
2022-10-26T00:04:45.078Z,9.08
2022-10-26T00:05:45.111Z,9.18
2022-10-26T00:06:45.061Z,9.17
2022-10-26T00:07:45.206Z,9.17
2022-10-26T00:08:45.065Z,9.29
2022-10-26T00:09:45.035Z,9.26
2022-10-26T00:10:45.011Z,9.29
2022-10-26T00:11:45.938Z,9.29
2022-10-26T00:12:45.098Z,9.33
2022-10-26T00:13:45.008Z,9.36
2022-10-26T00:14:44.976Z,9.35
2022-10-26T00:15:44.985Z,9.38
2022-10-26T00:16:44.978Z,9.39
2022-10-26T00:17:44.952Z,9.36
2022-10-26T00:18:44.942Z,9.43
2022-10-26T00:19:44.910Z,9.47
2022-10-26T00:20:44.910Z,9.51
2022-10-26T00:21:44.960Z,9.56
2022-10-26T00:22:44.920Z,9.50
2022-10-26T00:23:44.891Z,9.61
2022-10-26T00:24:44.889Z,9.60
2022-10-26T00:25:44.847Z,9.54
2022-10-26T00:26:44.854Z,9.54
2022-10-26T00:27:44.823Z,9.48
2022-10-26T00:28:44.809Z,9.56
2022-10-26T00:29:44.816Z,9.57
2022-10-26T00:30:44.814Z,9.46
2022-10-26T00:31:44.788Z,9.50
2022-10-26T00:32:44.878Z,9.46
2022-10-26T00:33:44.751Z,9.56
2022-10-26T00:34:44.745Z,9.57
2022-10-26T00:35:46.272Z,9.53
2022-10-26T00:36:44.755Z,9.58
2022-10-26T00:37:44.722Z,9.65
2022-10-26T00:38:44.696Z,9.57
2022-10-26T00:39:44.717Z,9.51
2022-10-26T00:40:44.738Z,9.50
2022-10-26T00:41:44.683Z,9.54
2022-10-26T00:42:44.664Z,9.38
2022-10-26T00:43:44.650Z,9.32
2022-10-26T00:44:44.636Z,9.40
2022-10-26T00:45:44.621Z,9.46
2022-10-26T00:46:44.649Z,9.40
2022-10-26T00:47:44.634Z,9.39
2022-10-26T00:48:44.595Z,9.38
2022-10-26T00:49:44.600Z,9.39
2022-10-26T00:50:44.601Z,9.42
2022-10-26T00:51:44.557Z,9.43
2022-10-26T00:52:44.973Z,9.57
2022-10-26T00:53:44.531Z,9.50
2022-10-26T00:54:44.527Z,9.65
2022-10-26T00:55:44.524Z,9.58
2022-10-26T00:56:44.506Z,9.53
2022-10-26T00:57:44.535Z,9.51
2022-10-26T00:58:44.502Z,9.57
2022-10-26T00:59:44.471Z,9.50
2022-10-26T01:00:44.473Z,9.42
2022-10-26T01:01:44.477Z,9.42
2022-10-26T01:02:44.439Z,9.42
2022-10-26T01:03:44.486Z,9.38
2022-10-26T01:04:44.448Z,9.51
2022-10-26T01:05:44.405Z,9.48
2022-10-26T01:06:44.405Z,9.57
2022-10-26T01:07:44.382Z,9.56
2022-10-26T01:08:44.382Z,9.54
2022-10-26T01:09:44.378Z,9.60
2022-10-26T01:10:44.336Z,9.60
2022-10-26T01:11:44.359Z,9.61
2022-10-26T01:12:44.342Z,9.61
2022-10-26T01:13:44.302Z,9.66
2022-10-26T01:14:44.314Z,9.64
2022-10-26T01:15:44.314Z,9.65
2022-10-26T01:16:44.275Z,9.65
2022-10-26T01:17:44.278Z,9.69
2022-10-26T01:18:44.459Z,9.75
2022-10-26T01:19:44.241Z,9.69
2022-10-26T01:20:44.270Z,9.74
2022-10-26T01:21:44.216Z,9.65
2022-10-26T01:22:44.218Z,9.79
2022-10-26T01:23:44.210Z,9.61
2022-10-26T01:24:44.195Z,9.66
2022-10-26T01:25:44.178Z,9.71
2022-10-26T01:26:44.233Z,9.75
2022-10-26T01:27:44.204Z,9.78
2022-10-26T01:28:44.153Z,9.86
2022-10-26T01:29:44.124Z,9.86
2022-10-26T01:30:44.112Z,9.78
2022-10-26T01:31:44.108Z,9.84
2022-10-26T01:32:44.130Z,9.89
2022-10-26T01:33:44.086Z,9.97
2022-10-26T01:34:44.083Z,9.89
2022-10-26T01:35:44.055Z,9.72
2022-10-26T01:36:44.049Z,9.78
2022-10-26T01:37:44.051Z,9.81
2022-10-26T01:38:44.069Z,9.81
2022-10-26T01:39:44.024Z,9.78
2022-10-26T01:40:44.018Z,9.79
2022-10-26T01:41:44.031Z,9.93
2022-10-26T01:42:43.980Z,9.89
2022-10-26T01:43:43.994Z,9.91
2022-10-26T01:44:43.962Z,9.93
2022-10-26T01:45:43.951Z,9.93
2022-10-26T01:46:43.959Z,9.91
2022-10-26T01:47:43.943Z,10.01
2022-10-26T01:48:43.929Z,9.94
2022-10-26T01:49:43.927Z,9.96
2022-10-26T01:50:43.896Z,10.04
2022-10-26T01:51:51.872Z,10.01
2022-10-26T01:52:43.974Z,9.97
2022-10-26T01:53:43.865Z,10.01
2022-10-26T01:54:43.912Z,10.04
2022-10-26T01:55:43.854Z,10.02
2022-10-26T01:56:43.826Z,10.05
2022-10-26T01:57:43.818Z,10.11
2022-10-26T01:58:43.829Z,10.15
2022-10-26T01:59:43.843Z,10.12
2022-10-26T02:00:43.796Z,10.15
2022-10-26T02:01:43.826Z,10.23
2022-10-26T02:02:43.808Z,10.23
2022-10-26T02:03:43.924Z,10.18
2022-10-26T02:04:43.773Z,10.26
2022-10-26T02:05:43.720Z,10.22
2022-10-26T02:06:43.727Z,10.29
2022-10-26T02:07:43.699Z,10.20
2022-10-26T02:08:43.705Z,10.25
2022-10-26T02:09:43.700Z,10.23
2022-10-26T02:10:43.664Z,10.20
2022-10-26T02:11:43.657Z,10.30
2022-10-26T02:12:43.658Z,10.26
2022-10-26T02:13:43.642Z,10.33
2022-10-26T02:14:43.648Z,10.14
2022-10-26T02:15:43.649Z,10.20
2022-10-26T02:16:43.698Z,10.23
2022-10-26T02:17:43.595Z,10.29
2022-10-26T02:18:43.577Z,10.23
2022-10-26T02:19:43.607Z,10.25
2022-10-26T02:20:43.585Z,10.32
2022-10-26T02:21:43.556Z,10.34
2022-10-26T02:22:43.586Z,10.42
2022-10-26T02:23:43.539Z,10.38
2022-10-26T02:24:43.511Z,10.42
2022-10-26T02:25:43.503Z,10.52
2022-10-26T02:26:43.516Z,10.42
2022-10-26T02:27:43.476Z,10.59
2022-10-26T02:28:43.476Z,10.56
2022-10-26T02:29:43.484Z,10.59
2022-10-26T02:30:43.449Z,10.70
2022-10-26T02:31:43.477Z,10.68
2022-10-26T02:32:43.452Z,10.70
2022-10-26T02:33:43.469Z,10.73
2022-10-26T02:34:43.406Z,10.78
2022-10-26T02:35:43.398Z,10.78
2022-10-26T02:36:43.426Z,10.76
2022-10-26T02:37:43.383Z,10.84
2022-10-26T02:38:43.390Z,10.78
2022-10-26T02:39:43.350Z,10.70
2022-10-26T02:40:43.350Z,10.81
2022-10-26T02:41:43.319Z,10.79
2022-10-26T02:42:43.328Z,10.73
2022-10-26T02:43:43.333Z,10.81
2022-10-26T02:44:43.306Z,10.81
2022-10-26T02:45:43.338Z,10.71
2022-10-26T02:46:43.289Z,10.76
2022-10-26T02:47:43.277Z,10.71
2022-10-26T02:48:43.266Z,10.84
2022-10-26T02:49:43.262Z,10.70
2022-10-26T02:50:43.221Z,10.81
2022-10-26T02:51:43.324Z,10.85
2022-10-26T02:52:43.194Z,10.78
2022-10-26T02:53:43.197Z,10.88
2022-10-26T02:54:43.195Z,10.82
2022-10-26T02:55:43.176Z,10.82
2022-10-26T02:56:43.151Z,10.79
2022-10-26T02:57:43.157Z,10.82
2022-10-26T02:58:43.161Z,10.76
2022-10-26T02:59:43.127Z,10.84
2022-10-26T03:00:43.133Z,10.81
2022-10-26T03:01:43.213Z,10.81
2022-10-26T03:02:46.098Z,10.82
2022-10-26T03:03:44.159Z,10.85
2022-10-26T03:04:43.078Z,10.86
2022-10-26T03:05:43.064Z,10.91
2022-10-26T03:06:43.071Z,10.85
2022-10-26T03:07:43.083Z,10.89
2022-10-26T03:08:43.038Z,10.96
2022-10-26T03:09:43.045Z,10.89
2022-10-26T03:10:43.023Z,10.84
2022-10-26T03:11:43.003Z,10.99
2022-10-26T03:12:43.011Z,10.88
2022-10-26T03:13:42.995Z,10.88
2022-10-26T03:14:42.962Z,10.91
2022-10-26T03:15:42.941Z,10.88
2022-10-26T03:16:43.004Z,10.84
2022-10-26T03:17:42.954Z,10.89
2022-10-26T03:18:42.902Z,10.86
2022-10-26T03:19:42.926Z,10.79
2022-10-26T03:20:42.910Z,10.89
2022-10-26T03:21:42.883Z,10.89
2022-10-26T03:22:42.879Z,10.84
2022-10-26T03:23:42.893Z,10.91
2022-10-26T03:24:42.888Z,10.91
2022-10-26T03:25:42.872Z,10.85
2022-10-26T03:26:42.842Z,10.86
2022-10-26T03:27:42.819Z,10.91
2022-10-26T03:28:42.814Z,10.91
2022-10-26T03:29:42.797Z,10.86
2022-10-26T03:30:42.841Z,10.81
2022-10-26T03:31:42.784Z,10.91
2022-10-26T03:32:42.751Z,10.88
2022-10-26T03:33:42.763Z,10.82
2022-10-26T03:34:42.730Z,10.84
2022-10-26T03:35:42.731Z,10.85
2022-10-26T03:36:42.765Z,10.86
2022-10-26T03:37:42.722Z,10.86
2022-10-26T03:38:42.716Z,10.84
2022-10-26T03:39:42.685Z,10.82
2022-10-26T03:40:42.669Z,10.96
2022-10-26T03:41:42.754Z,10.91
2022-10-26T03:42:42.682Z,10.82
2022-10-26T03:43:42.625Z,10.92
2022-10-26T03:44:42.635Z,10.79
2022-10-26T03:45:42.632Z,10.84
2022-10-26T03:46:42.609Z,10.82
2022-10-26T03:47:42.580Z,10.78
2022-10-26T03:48:42.596Z,10.88
2022-10-26T03:49:42.562Z,10.85
2022-10-26T03:50:42.610Z,10.91
2022-10-26T03:51:42.607Z,10.86
2022-10-26T03:52:42.570Z,10.81
2022-10-26T03:53:42.516Z,10.81
2022-10-26T03:54:42.528Z,10.67
2022-10-26T03:55:42.499Z,10.74
2022-10-26T03:56:42.497Z,10.84
2022-10-26T03:57:42.511Z,10.82
2022-10-26T03:58:42.509Z,10.73
2022-10-26T03:59:42.467Z,10.82
2022-10-26T04:00:42.434Z,10.68
2022-10-26T04:01:42.489Z,10.81
2022-10-26T04:02:42.446Z,10.74
2022-10-26T04:03:42.449Z,10.73
2022-10-26T04:04:42.440Z,10.66
2022-10-26T04:05:42.394Z,10.73
2022-10-26T04:06:42.411Z,10.64
2022-10-26T04:07:42.392Z,10.70
2022-10-26T04:08:42.373Z,10.71
2022-10-26T04:09:42.336Z,10.79
2022-10-26T04:10:42.396Z,10.73
2022-10-26T04:11:42.345Z,10.70
2022-10-26T04:12:42.312Z,10.78
2022-10-26T04:13:42.308Z,10.71
2022-10-26T04:14:42.564Z,10.63
2022-10-26T04:15:42.271Z,10.63
2022-10-26T04:16:42.262Z,10.59
2022-10-26T04:17:42.278Z,10.55
2022-10-26T04:18:42.251Z,10.63
2022-10-26T04:19:42.256Z,10.70
2022-10-26T04:20:42.261Z,10.79
2022-10-26T04:21:42.208Z,10.79
2022-10-26T04:22:42.207Z,10.79
2022-10-26T04:23:42.201Z,10.81
2022-10-26T04:24:42.183Z,10.81
2022-10-26T04:25:42.183Z,10.76
2022-10-26T04:26:42.194Z,10.74
2022-10-26T04:27:42.149Z,10.81
2022-10-26T04:28:42.147Z,10.81
2022-10-26T04:29:42.121Z,10.82
2022-10-26T04:30:42.119Z,10.82
2022-10-26T04:32:42.086Z,10.76
2022-10-26T04:33:42.084Z,10.84
2022-10-26T04:34:42.054Z,10.85
2022-10-26T04:35:42.066Z,10.68
2022-10-26T04:36:42.062Z,10.79
2022-10-26T04:37:42.066Z,10.79
2022-10-26T04:38:42.020Z,10.76
2022-10-26T04:39:42.050Z,10.74
2022-10-26T04:40:42.029Z,10.79
2022-10-26T04:41:42.003Z,10.85
2022-10-26T04:42:41.997Z,10.81
2022-10-26T04:43:41.959Z,10.73
2022-10-26T04:44:41.984Z,10.71
2022-10-26T04:45:41.977Z,10.78
2022-10-26T04:46:41.933Z,10.74
2022-10-26T04:47:41.939Z,10.74
2022-10-26T04:48:41.912Z,10.84
2022-10-26T04:49:41.893Z,10.84
2022-10-26T04:50:41.892Z,10.85
2022-10-26T04:51:41.872Z,10.73
2022-10-26T04:52:41.906Z,10.66
2022-10-26T04:53:41.873Z,10.66
2022-10-26T04:54:41.919Z,10.59
2022-10-26T04:55:41.852Z,10.66
2022-10-26T04:56:41.881Z,10.70
2022-10-26T04:57:41.807Z,10.66
2022-10-26T04:58:41.799Z,10.71
2022-10-26T04:59:41.809Z,10.71
2022-10-26T05:00:41.791Z,10.70
2022-10-26T05:01:41.899Z,10.66
2022-10-26T05:02:41.764Z,10.59
2022-10-26T05:03:41.745Z,10.59
2022-10-26T05:04:41.742Z,10.59
2022-10-26T05:05:41.745Z,10.55
2022-10-26T05:06:41.763Z,10.55
2022-10-26T05:07:41.706Z,10.56
2022-10-26T05:08:41.679Z,10.59
2022-10-26T05:09:41.674Z,10.53
2022-10-26T05:10:41.722Z,10.59
2022-10-26T05:11:41.662Z,10.60
2022-10-26T05:12:41.650Z,10.44
2022-10-26T05:13:41.640Z,10.47
2022-10-26T05:14:41.650Z,10.56
2022-10-26T05:15:41.609Z,10.59
2022-10-26T05:16:41.626Z,10.56
2022-10-26T05:17:41.575Z,10.53
2022-10-26T05:18:41.572Z,10.55
2022-10-26T05:19:41.584Z,10.60
2022-10-26T05:20:41.554Z,10.67
2022-10-26T05:21:41.574Z,10.76
2022-10-26T05:22:41.556Z,10.78
2022-10-26T05:23:41.512Z,10.79
2022-10-26T05:24:41.518Z,10.78
2022-10-26T05:25:41.521Z,10.84
2022-10-26T05:26:41.479Z,10.85
2022-10-26T05:27:41.492Z,10.88
2022-10-26T05:28:41.473Z,10.89
2022-10-26T05:29:41.501Z,10.86
2022-10-26T05:30:41.468Z,10.91
2022-10-26T05:31:41.429Z,10.88
2022-10-26T05:32:41.419Z,10.84
2022-10-26T05:33:41.433Z,10.96
2022-10-26T05:34:41.636Z,10.88
2022-10-26T05:35:41.384Z,10.91
2022-10-26T05:36:41.358Z,10.88
2022-10-26T05:37:41.409Z,10.86
2022-10-26T05:38:41.360Z,10.85
2022-10-26T05:39:41.343Z,10.91
2022-10-26T05:40:41.322Z,10.85
2022-10-26T05:41:41.331Z,10.88
2022-10-26T05:42:41.298Z,10.86
2022-10-26T05:43:41.368Z,10.91
2022-10-26T05:44:41.296Z,10.85
2022-10-26T05:45:41.258Z,10.85
2022-10-26T05:46:41.287Z,10.79
2022-10-26T05:47:41.269Z,10.82
2022-10-26T05:48:41.270Z,10.85
2022-10-26T05:49:41.230Z,10.81
2022-10-26T05:50:41.240Z,10.91
2022-10-26T05:51:41.208Z,10.79
2022-10-26T05:52:41.225Z,10.82
2022-10-26T05:53:41.169Z,10.86
2022-10-26T05:54:41.175Z,10.86
2022-10-26T05:55:41.168Z,10.79
2022-10-26T05:56:41.175Z,10.85
2022-10-26T05:57:41.159Z,10.82
2022-10-26T05:58:41.143Z,10.85
2022-10-26T05:59:41.123Z,10.86
2022-10-26T06:00:41.112Z,10.88
2022-10-26T06:01:41.263Z,10.92
2022-10-26T06:02:41.129Z,10.88
2022-10-26T06:03:41.099Z,10.86
2022-10-26T06:04:41.082Z,10.85
2022-10-26T06:05:41.080Z,10.94
2022-10-26T06:06:41.042Z,10.89
2022-10-26T06:07:41.026Z,11.00
2022-10-26T06:08:41.089Z,10.89
2022-10-26T06:09:41.003Z,11.02
2022-10-26T06:10:40.978Z,11.02
2022-10-26T06:11:41.039Z,11.00
2022-10-26T06:12:41.020Z,11.10
2022-10-26T06:13:40.943Z,11.11
2022-10-26T06:14:40.936Z,11.10
2022-10-26T06:15:40.955Z,11.09
2022-10-26T06:16:40.918Z,11.06
2022-10-26T06:17:40.958Z,11.11
2022-10-26T06:18:40.923Z,11.14
2022-10-26T06:19:40.880Z,11.14
2022-10-26T06:20:40.914Z,11.11
2022-10-26T06:21:40.853Z,11.10
2022-10-26T06:22:40.890Z,11.21
2022-10-26T06:23:40.876Z,11.19
2022-10-26T06:24:40.835Z,11.25
2022-10-26T06:25:40.808Z,11.25
2022-10-26T06:26:40.809Z,11.21
2022-10-26T06:27:40.831Z,11.11
2022-10-26T06:28:40.838Z,11.27
2022-10-26T06:29:40.791Z,11.22
2022-10-26T06:30:40.756Z,11.15
2022-10-26T06:31:40.771Z,11.15
2022-10-26T06:32:40.817Z,11.19
2022-10-26T06:33:40.727Z,11.19
2022-10-26T06:34:40.780Z,11.18
2022-10-26T06:35:40.732Z,11.22
2022-10-26T06:36:40.815Z,11.21
2022-10-26T06:37:40.827Z,11.19
2022-10-26T06:38:40.663Z,11.17
2022-10-26T06:39:40.715Z,11.22
2022-10-26T06:40:40.676Z,11.25
2022-10-26T06:41:40.667Z,11.25
2022-10-26T06:42:40.653Z,11.27
2022-10-26T06:43:40.626Z,11.27
2022-10-26T06:44:40.599Z,11.32
2022-10-26T06:45:40.599Z,11.35
2022-10-26T06:46:41.536Z,11.39
2022-10-26T06:47:40.582Z,11.33
2022-10-26T06:48:41.124Z,11.39
2022-10-26T06:49:40.572Z,11.40
2022-10-26T06:50:40.565Z,11.42
2022-10-26T06:51:40.545Z,11.47
2022-10-26T06:52:40.551Z,11.40
2022-10-26T06:54:40.570Z,11.44
2022-10-26T06:55:40.473Z,11.52
2022-10-26T06:56:40.481Z,11.47
2022-10-26T06:57:40.496Z,11.54
2022-10-26T06:58:40.454Z,11.55
2022-10-26T06:59:40.440Z,11.61
2022-10-26T07:00:40.450Z,11.62
2022-10-26T07:01:40.583Z,11.58
2022-10-26T07:02:40.490Z,11.62
2022-10-26T07:03:40.463Z,11.65
2022-10-26T07:04:40.430Z,11.72
2022-10-26T07:05:40.368Z,11.72
2022-10-26T07:06:40.384Z,11.65
2022-10-26T07:07:40.348Z,11.65
2022-10-26T07:08:40.358Z,11.73
2022-10-26T07:09:40.399Z,11.76
2022-10-26T07:10:40.310Z,11.75
2022-10-26T07:11:40.307Z,11.85
2022-10-26T07:12:40.283Z,11.79
2022-10-26T07:13:40.334Z,11.85
2022-10-26T07:14:40.299Z,11.90
2022-10-26T07:15:40.269Z,11.95
2022-10-26T07:16:40.250Z,11.91
2022-10-26T07:17:42.649Z,11.99
2022-10-26T07:18:40.253Z,11.94
2022-10-26T07:19:40.220Z,11.94
2022-10-26T07:20:40.228Z,11.96
2022-10-26T07:21:40.230Z,11.91
2022-10-26T07:22:40.182Z,12.02
2022-10-26T07:23:40.227Z,12.01
2022-10-26T07:24:40.159Z,11.99
2022-10-26T07:25:40.272Z,12.01
2022-10-26T07:26:40.135Z,12.12
2022-10-26T07:27:40.122Z,12.01
2022-10-26T07:28:40.123Z,12.02
2022-10-26T07:29:40.123Z,12.05
2022-10-26T07:30:40.105Z,12.09
2022-10-26T07:31:40.189Z,12.02
2022-10-26T07:32:40.104Z,12.14
2022-10-26T07:33:41.596Z,12.01
2022-10-26T07:34:40.067Z,12.07
2022-10-26T07:35:40.098Z,12.12
2022-10-26T07:36:40.029Z,12.14
2022-10-26T07:37:40.013Z,12.14
2022-10-26T07:38:40.014Z,12.13
2022-10-26T07:39:39.991Z,12.16
2022-10-26T07:40:40.033Z,12.17
2022-10-26T07:41:39.979Z,12.17
2022-10-26T07:42:41.983Z,12.17
2022-10-26T07:43:39.971Z,12.21
2022-10-26T07:44:39.931Z,12.32
2022-10-26T07:45:39.988Z,12.31
2022-10-26T07:46:39.908Z,12.32
2022-10-26T07:47:39.904Z,12.31
2022-10-26T07:48:39.966Z,12.39
2022-10-26T07:49:39.929Z,12.34
2022-10-26T07:50:39.875Z,12.41
2022-10-26T07:51:39.906Z,12.45
2022-10-26T07:52:39.884Z,12.45
2022-10-26T07:53:39.838Z,12.52
2022-10-26T07:54:39.850Z,12.54
2022-10-26T07:55:39.823Z,12.49
2022-10-26T07:56:39.800Z,12.60
2022-10-26T07:57:39.839Z,12.50
2022-10-26T07:58:39.785Z,12.67
2022-10-26T07:59:39.783Z,12.62
2022-10-26T08:00:39.818Z,12.67
2022-10-26T08:01:39.764Z,12.70
2022-10-26T08:02:39.737Z,12.67
2022-10-26T08:03:39.786Z,12.65
2022-10-26T08:04:39.774Z,12.71
2022-10-26T08:05:39.720Z,12.79
2022-10-26T08:06:39.725Z,12.79
2022-10-26T08:07:39.698Z,12.74
2022-10-26T08:08:43.530Z,12.78
2022-10-26T08:09:40.713Z,12.85
2022-10-26T08:10:39.662Z,12.82
2022-10-26T08:11:39.657Z,12.85
2022-10-26T08:12:39.634Z,12.85
2022-10-26T08:13:39.663Z,12.78
2022-10-26T08:14:39.590Z,12.89
2022-10-26T08:15:39.609Z,12.87
2022-10-26T08:16:39.605Z,12.86
2022-10-26T08:17:39.572Z,12.87
2022-10-26T08:18:39.578Z,12.90
2022-10-26T08:19:39.545Z,12.90
2022-10-26T08:20:39.567Z,12.95
2022-10-26T08:21:40.391Z,12.97
2022-10-26T08:22:39.528Z,13.00
2022-10-26T08:23:39.520Z,13.08
2022-10-26T08:24:39.542Z,13.08
2022-10-26T08:25:39.481Z,13.08
2022-10-26T08:26:39.493Z,13.11
2022-10-26T08:27:39.465Z,13.14
2022-10-26T08:28:39.449Z,13.22
2022-10-26T08:29:39.424Z,13.22
2022-10-26T08:30:39.484Z,13.30
2022-10-26T08:31:39.464Z,13.28
2022-10-26T08:32:39.406Z,13.36
2022-10-26T08:33:44.158Z,13.36
2022-10-26T08:34:40.445Z,13.39
2022-10-26T08:35:39.363Z,13.44
2022-10-26T08:36:39.370Z,13.39
2022-10-26T08:37:39.340Z,13.41
2022-10-26T08:38:39.333Z,13.46
2022-10-26T08:39:39.346Z,13.48
2022-10-26T08:40:39.323Z,13.45
2022-10-26T08:41:39.303Z,13.49
2022-10-26T08:42:39.308Z,13.51
2022-10-26T08:43:39.278Z,13.52
2022-10-26T08:44:39.283Z,13.49
2022-10-26T08:45:39.286Z,13.55
2022-10-26T08:46:39.234Z,13.57
2022-10-26T08:47:39.229Z,13.54
2022-10-26T08:48:39.250Z,13.49
2022-10-26T08:49:39.213Z,13.60
2022-10-26T08:50:41.921Z,13.57
2022-10-26T08:51:39.226Z,13.62
2022-10-26T08:52:39.197Z,13.62
2022-10-26T08:53:39.180Z,13.67
2022-10-26T08:54:39.153Z,13.62
2022-10-26T08:55:39.230Z,13.78
2022-10-26T08:56:39.151Z,13.82
2022-10-26T08:57:39.110Z,13.87
2022-10-26T08:58:39.175Z,13.89
2022-10-26T08:59:39.148Z,14.00
2022-10-26T09:00:39.130Z,14.07
2022-10-26T09:01:39.267Z,14.17
2022-10-26T09:02:39.093Z,14.12
2022-10-26T09:03:39.046Z,14.24
2022-10-26T09:04:39.051Z,14.39
2022-10-26T09:05:39.058Z,14.46
2022-10-26T09:06:39.032Z,14.55
2022-10-26T09:07:39.027Z,14.55
2022-10-26T09:08:39.033Z,14.58
2022-10-26T09:09:38.990Z,14.52
2022-10-26T09:10:38.988Z,14.68
2022-10-26T09:11:38.979Z,14.69
2022-10-26T09:12:38.957Z,14.73
2022-10-26T09:13:39.141Z,14.77
2022-10-26T09:14:38.948Z,14.81
2022-10-26T09:15:38.920Z,14.75
2022-10-26T09:16:38.923Z,14.81
2022-10-26T09:17:38.901Z,14.91
2022-10-26T09:18:38.960Z,14.91
2022-10-26T09:19:38.883Z,14.92
2022-10-26T09:20:38.911Z,15.09
2022-10-26T09:21:38.876Z,15.10
2022-10-26T09:22:38.834Z,15.11
2022-10-26T09:23:38.844Z,15.11
2022-10-26T09:24:38.873Z,15.25
2022-10-26T09:25:38.822Z,15.16
2022-10-26T09:26:38.816Z,15.21
2022-10-26T09:27:38.830Z,15.23
2022-10-26T09:28:38.829Z,15.32
2022-10-26T09:29:38.781Z,15.35
2022-10-26T09:30:38.778Z,15.34
2022-10-26T09:31:42.332Z,15.39
2022-10-26T09:32:38.763Z,15.43
2022-10-26T09:33:38.739Z,15.47
2022-10-26T09:34:38.718Z,15.46
2022-10-26T09:35:38.712Z,15.46
2022-10-26T09:36:38.697Z,15.46
2022-10-26T09:37:38.691Z,15.46
2022-10-26T09:38:38.695Z,15.54
2022-10-26T09:39:38.646Z,15.56
2022-10-26T09:40:38.653Z,15.54
2022-10-26T09:41:38.626Z,15.60
2022-10-26T09:42:38.620Z,15.59
2022-10-26T09:43:38.749Z,15.59
2022-10-26T09:44:38.612Z,15.64
2022-10-26T09:45:38.586Z,15.65
2022-10-26T09:46:38.582Z,15.68
2022-10-26T09:47:38.586Z,15.72
2022-10-26T09:48:38.559Z,15.74
2022-10-26T09:49:38.575Z,15.82
2022-10-26T09:50:38.526Z,15.83
2022-10-26T09:51:38.541Z,15.76
2022-10-26T09:52:38.532Z,15.78
2022-10-26T09:53:38.492Z,15.69
2022-10-26T09:54:38.511Z,15.80
2022-10-26T09:55:38.473Z,15.82
2022-10-26T09:56:38.459Z,15.68
2022-10-26T09:57:38.465Z,15.76
2022-10-26T09:58:38.464Z,15.78
2022-10-26T09:59:38.491Z,15.75
2022-10-26T10:00:38.423Z,15.74
2022-10-26T10:01:41.541Z,15.74
2022-10-26T10:02:38.453Z,15.71
2022-10-26T10:03:38.404Z,15.74
2022-10-26T10:04:38.370Z,15.71
2022-10-26T10:05:50.868Z,15.68
2022-10-26T10:06:39.348Z,15.80
2022-10-26T10:07:40.131Z,15.74
2022-10-26T10:08:38.342Z,15.72
2022-10-26T10:09:38.309Z,15.68
2022-10-26T10:10:38.302Z,15.76
2022-10-26T10:11:38.315Z,15.83
2022-10-26T10:12:38.320Z,15.74
2022-10-26T10:13:38.277Z,15.74
2022-10-26T10:14:39.839Z,15.72
2022-10-26T10:15:38.266Z,15.83
2022-10-26T10:16:38.234Z,15.86
2022-10-26T10:17:38.232Z,15.90
2022-10-26T10:18:38.253Z,15.84
2022-10-26T10:19:38.211Z,15.92
2022-10-26T10:20:38.185Z,15.86
2022-10-26T10:21:38.169Z,15.89
2022-10-26T10:22:38.174Z,16.00
2022-10-26T10:23:38.169Z,15.96
2022-10-26T10:24:38.143Z,15.94
2022-10-26T10:25:38.154Z,15.97
2022-10-26T10:26:38.126Z,16.07
2022-10-26T10:27:38.127Z,16.05
2022-10-26T10:28:38.099Z,16.07
2022-10-26T10:29:38.129Z,16.08
2022-10-26T10:30:38.081Z,16.09
2022-10-26T10:31:38.107Z,16.11
2022-10-26T10:32:39.271Z,16.11
2022-10-26T10:33:38.066Z,16.20
2022-10-26T10:34:38.035Z,16.09
2022-10-26T10:35:38.018Z,16.14
2022-10-26T10:36:38.013Z,16.12
2022-10-26T10:37:37.991Z,16.12
2022-10-26T10:38:38.027Z,16.23
2022-10-26T10:39:37.997Z,16.15
2022-10-26T10:40:38.001Z,16.15
2022-10-26T10:41:37.954Z,16.28
2022-10-26T10:42:37.997Z,16.23
2022-10-26T10:43:37.932Z,16.28
2022-10-26T10:44:37.930Z,16.24
2022-10-26T10:45:37.937Z,16.25
2022-10-26T10:46:37.899Z,16.42
2022-10-26T10:47:37.986Z,16.24
2022-10-26T10:48:39.462Z,16.33
2022-10-26T10:49:37.870Z,16.38
2022-10-26T10:50:37.843Z,16.38
2022-10-26T10:51:37.847Z,16.42
2022-10-26T10:52:37.827Z,16.33
2022-10-26T10:53:37.826Z,16.38
2022-10-26T10:54:37.831Z,16.45
2022-10-26T10:55:37.945Z,16.43
2022-10-26T10:56:37.783Z,16.45
2022-10-26T10:57:37.767Z,16.46
2022-10-26T10:58:37.769Z,16.45
2022-10-26T10:59:37.823Z,16.43
2022-10-26T11:00:37.791Z,16.50
2022-10-26T11:01:37.882Z,16.53
2022-10-26T11:02:37.856Z,16.48
2022-10-26T11:03:37.721Z,16.50
2022-10-26T11:04:37.716Z,16.45
2022-10-26T11:05:37.715Z,16.56
2022-10-26T11:06:37.670Z,16.48
2022-10-26T11:07:37.685Z,16.53
2022-10-26T11:08:37.683Z,16.64
2022-10-26T11:09:37.638Z,16.52
2022-10-26T11:10:37.641Z,16.61
2022-10-26T11:11:41.707Z,16.66
2022-10-26T11:12:38.617Z,16.58
2022-10-26T11:13:37.628Z,16.61
2022-10-26T11:14:37.571Z,16.63
2022-10-26T11:15:37.591Z,16.60
2022-10-26T11:16:38.122Z,16.68
2022-10-26T11:17:37.554Z,16.63
2022-10-26T11:18:37.526Z,16.61
2022-10-26T11:19:37.555Z,16.71
2022-10-26T11:20:37.512Z,16.71
2022-10-26T11:21:37.525Z,16.70
2022-10-26T11:22:37.517Z,16.73
2022-10-26T11:23:37.479Z,16.85
2022-10-26T11:24:37.478Z,16.82
2022-10-26T11:25:37.471Z,16.79
2022-10-26T11:26:39.411Z,16.85
2022-10-26T11:27:37.465Z,16.82
2022-10-26T11:28:37.425Z,16.76
2022-10-26T11:29:39.441Z,16.81
2022-10-26T11:30:37.429Z,16.79
2022-10-26T11:31:37.386Z,16.78
2022-10-26T11:32:37.442Z,16.93
2022-10-26T11:33:37.403Z,16.79
2022-10-26T11:34:37.371Z,16.94
2022-10-26T11:35:37.373Z,16.97
2022-10-26T11:36:37.353Z,16.93
2022-10-26T11:37:37.345Z,16.96
2022-10-26T11:38:46.577Z,16.93
2022-10-26T11:39:38.321Z,16.96
2022-10-26T11:40:37.300Z,16.96
2022-10-26T11:41:37.282Z,17.00
2022-10-26T11:42:37.269Z,16.91
2022-10-26T11:43:37.315Z,16.85
2022-10-26T11:44:37.235Z,17.01
2022-10-26T11:45:37.263Z,17.04
2022-10-26T11:46:37.243Z,17.00
2022-10-26T11:47:37.216Z,17.01
2022-10-26T11:48:37.229Z,17.01
2022-10-26T11:49:37.189Z,16.97
2022-10-26T11:50:37.202Z,17.01
2022-10-26T11:51:37.176Z,17.08
2022-10-26T11:52:45.172Z,17.12
2022-10-26T11:53:37.142Z,17.04
2022-10-26T11:54:37.134Z,17.11
2022-10-26T11:55:37.142Z,17.06
2022-10-26T11:56:37.110Z,17.12
2022-10-26T11:57:37.149Z,17.04
2022-10-26T11:58:37.086Z,17.08
2022-10-26T11:59:37.078Z,17.08
2022-10-26T12:00:37.063Z,17.08
2022-10-26T12:01:37.144Z,17.11
2022-10-26T12:02:37.200Z,17.16
2022-10-26T12:03:37.043Z,17.12
2022-10-26T12:04:37.050Z,17.15
2022-10-26T12:05:37.015Z,17.26
2022-10-26T12:06:37.004Z,17.30
2022-10-26T12:07:37.038Z,17.36
2022-10-26T12:08:36.994Z,17.34
2022-10-26T12:09:36.985Z,17.34
2022-10-26T12:10:37.001Z,17.36
2022-10-26T12:11:36.946Z,17.36
2022-10-26T12:12:37.523Z,17.43
2022-10-26T12:13:36.921Z,17.37
2022-10-26T12:14:36.930Z,17.38
2022-10-26T12:16:01.769Z,17.41
2022-10-26T12:16:37.899Z,17.49
2022-10-26T12:17:36.886Z,17.46
2022-10-26T12:18:54.412Z,17.44
2022-10-26T12:19:37.912Z,17.49
2022-10-26T12:20:36.835Z,17.51
2022-10-26T12:21:36.819Z,17.48
2022-10-26T12:22:36.871Z,17.52
2022-10-26T12:23:47.748Z,17.51
2022-10-26T12:24:37.817Z,17.55
2022-10-26T12:25:36.793Z,17.63
2022-10-26T12:26:36.769Z,17.58
2022-10-26T12:27:36.820Z,17.63
2022-10-26T12:28:36.748Z,17.63
2022-10-26T12:29:37.117Z,17.71
2022-10-26T12:30:36.773Z,17.77
2022-10-26T12:31:36.711Z,17.71
2022-10-26T12:32:39.153Z,17.68
2022-10-26T12:33:36.691Z,17.77
2022-10-26T12:34:36.696Z,17.77
2022-10-26T12:35:36.668Z,17.84
2022-10-26T12:36:36.678Z,17.87
2022-10-26T12:37:37.356Z,17.87
2022-10-26T12:38:36.663Z,17.87
2022-10-26T12:39:36.660Z,17.90
2022-10-26T12:40:36.625Z,18.00
2022-10-26T12:41:36.605Z,17.97
2022-10-26T12:42:36.607Z,17.99
2022-10-26T12:43:36.705Z,17.96
2022-10-26T12:44:36.572Z,17.99
2022-10-26T12:45:36.582Z,18.00
2022-10-26T12:46:36.538Z,18.02
2022-10-26T12:47:36.584Z,18.10
2022-10-26T12:48:39.145Z,18.11
2022-10-26T12:49:36.525Z,18.08
2022-10-26T12:50:36.503Z,18.11
2022-10-26T12:51:39.801Z,18.18
2022-10-26T12:52:36.473Z,18.14
2022-10-26T12:53:36.485Z,18.23
2022-10-26T12:54:36.456Z,18.26
2022-10-26T12:55:36.470Z,18.26
2022-10-26T12:56:36.451Z,18.36
2022-10-26T12:57:36.456Z,18.30
2022-10-26T12:58:36.470Z,18.33